createdAt,value
2023-01-19T00:00:56.349Z,2.16
2023-01-19T00:03:24.491Z,2.15
2023-01-19T00:05:52.836Z,2.16
2023-01-19T00:08:21.090Z,2.06
2023-01-19T00:10:52.294Z,2.06
2023-01-19T00:13:21.881Z,2.21
2023-01-19T00:15:50.382Z,2.05
2023-01-19T00:18:18.539Z,2.05
2023-01-19T00:20:46.831Z,1.87
2023-01-19T00:23:15.225Z,2.03
2023-01-19T00:25:43.796Z,2.11
2023-01-19T00:28:12.385Z,2.19
2023-01-19T00:30:42.353Z,2.28
2023-01-19T00:33:10.848Z,2.32
2023-01-19T00:35:38.930Z,1.96
2023-01-19T00:38:07.096Z,2.09
2023-01-19T00:40:35.296Z,2.02
2023-01-19T00:43:04.307Z,2.09
2023-01-19T00:45:32.624Z,2.12
2023-01-19T00:48:02.116Z,2.12
2023-01-19T00:50:31.104Z,1.67
2023-01-19T00:53:01.373Z,1.97
2023-01-19T00:55:30.089Z,1.50
2023-01-19T00:57:58.483Z,1.89
2023-01-19T01:00:26.902Z,1.68
2023-01-19T01:02:55.120Z,2.04
2023-01-19T01:05:24.678Z,1.90
2023-01-19T01:07:52.789Z,1.78
2023-01-19T01:10:22.314Z,1.89
2023-01-19T01:12:57.493Z,2.30
2023-01-19T01:15:27.684Z,2.21
2023-01-19T01:17:56.000Z,1.88
2023-01-19T01:20:27.969Z,2.21
2023-01-19T01:22:56.942Z,2.05
2023-01-19T01:25:27.372Z,1.65
2023-01-19T01:27:56.055Z,1.83
2023-01-19T01:30:24.635Z,1.55
2023-01-19T01:32:52.813Z,1.97
2023-01-19T01:35:21.032Z,1.71
2023-01-19T01:37:50.625Z,1.60
2023-01-19T01:40:19.465Z,2.12
2023-01-19T01:42:47.507Z,2.16
2023-01-19T01:45:29.970Z,1.93
2023-01-19T01:47:59.798Z,1.44
2023-01-19T01:50:30.506Z,1.71
2023-01-19T01:53:07.573Z,2.03
2023-01-19T01:55:38.078Z,2.09
2023-01-19T01:58:07.087Z,1.74
2023-01-19T02:00:55.277Z,2.28
2023-01-19T02:03:23.875Z,1.73
2023-01-19T02:05:53.200Z,2.00
2023-01-19T02:08:45.289Z,2.13
2023-01-19T02:11:31.081Z,1.73
2023-01-19T02:13:59.399Z,2.03
2023-01-19T02:16:27.626Z,1.53
2023-01-19T02:18:55.794Z,1.80
2023-01-19T02:21:25.300Z,1.90
2023-01-19T02:23:55.955Z,1.92
2023-01-19T02:26:25.702Z,1.93
2023-01-19T02:28:55.117Z,1.72
2023-01-19T02:31:23.354Z,1.65
2023-01-19T02:33:51.928Z,1.49
2023-01-19T02:36:23.993Z,1.44
2023-01-19T02:38:53.031Z,1.50
2023-01-19T02:41:24.597Z,1.05
2023-01-19T02:43:54.050Z,1.23
2023-01-19T02:46:22.324Z,1.56
2023-01-19T02:48:50.456Z,1.67
2023-01-19T02:51:19.421Z,1.67
2023-01-19T02:54:00.241Z,1.38
2023-01-19T02:56:37.262Z,1.03
2023-01-19T02:59:08.037Z,1.81
2023-01-19T03:01:42.316Z,1.41
2023-01-19T03:04:14.741Z,1.45
2023-01-19T03:06:46.019Z,1.91
2023-01-19T03:09:19.969Z,1.61
2023-01-19T03:11:53.582Z,1.52
2023-01-19T03:14:24.474Z,1.71
2023-01-19T03:16:55.261Z,1.04
2023-01-19T03:19:24.994Z,1.16
2023-01-19T03:21:55.069Z,1.11
2023-01-19T03:24:24.010Z,1.11
2023-01-19T03:26:56.602Z,1.27
2023-01-19T03:29:26.010Z,1.37
2023-01-19T03:31:55.095Z,1.44
2023-01-19T03:34:24.279Z,1.72
2023-01-19T03:36:54.222Z,1.39
2023-01-19T03:39:23.791Z,1.46
2023-01-19T03:41:54.397Z,1.19
2023-01-19T03:44:22.585Z,1.25
2023-01-19T03:46:50.949Z,1.00
2023-01-19T03:49:19.172Z,1.49
2023-01-19T03:51:47.510Z,1.23
2023-01-19T03:54:17.801Z,0.95
2023-01-19T03:56:45.990Z,1.45
2023-01-19T03:59:17.624Z,1.24
2023-01-19T04:01:46.003Z,1.40
2023-01-19T04:04:15.602Z,1.16
2023-01-19T04:06:43.979Z,1.13
2023-01-19T04:09:12.062Z,1.14
2023-01-19T04:11:40.190Z,1.54
2023-01-19T04:14:08.358Z,1.29
2023-01-19T04:16:37.997Z,1.50
2023-01-19T04:19:06.408Z,1.34
2023-01-19T04:21:35.068Z,1.50
2023-01-19T04:24:03.159Z,1.83
2023-01-19T04:26:31.302Z,1.62
2023-01-19T04:28:59.634Z,1.54
2023-01-19T04:31:27.738Z,1.13
2023-01-19T04:33:58.444Z,1.34
2023-01-19T04:36:26.594Z,1.63
2023-01-19T04:38:54.908Z,1.39
2023-01-19T04:41:23.073Z,1.83
2023-01-19T04:43:51.381Z,1.68
2023-01-19T04:46:19.477Z,1.91
2023-01-19T04:48:47.615Z,1.58
2023-01-19T04:51:17.125Z,1.63
2023-01-19T04:53:45.255Z,1.46
2023-01-19T04:56:13.312Z,1.80
2023-01-19T04:58:41.995Z,1.77
2023-01-19T05:01:10.234Z,1.70
2023-01-19T05:03:38.360Z,1.88
2023-01-19T05:06:06.672Z,1.98
2023-01-19T05:08:36.311Z,1.67
2023-01-19T05:11:04.499Z,1.24
2023-01-19T05:13:33.595Z,1.78
2023-01-19T05:16:01.883Z,1.93
2023-01-19T05:18:30.086Z,1.80
2023-01-19T05:20:58.154Z,1.58
2023-01-19T05:23:26.262Z,2.08
2023-01-19T05:25:56.902Z,1.77
2023-01-19T05:28:24.991Z,1.90
2023-01-19T05:30:53.072Z,2.52
2023-01-19T05:33:21.663Z,2.46
2023-01-19T05:35:50.793Z,2.30
2023-01-19T05:38:23.365Z,2.24
2023-01-19T05:40:59.695Z,2.69
2023-01-19T05:43:27.864Z,2.39
2023-01-19T05:45:55.920Z,2.43
2023-01-19T05:48:24.053Z,2.57
2023-01-19T05:50:52.125Z,2.24
2023-01-19T05:53:20.530Z,2.61
2023-01-19T05:55:48.596Z,2.53
2023-01-19T05:58:18.317Z,2.81
2023-01-19T06:00:46.448Z,2.58
2023-01-19T06:03:14.533Z,2.43
2023-01-19T06:05:42.698Z,2.29
2023-01-19T06:08:10.785Z,2.16
2023-01-19T06:10:39.010Z,2.40
2023-01-19T06:13:07.497Z,2.41
2023-01-19T06:15:37.701Z,2.35
2023-01-19T06:18:05.880Z,2.74
2023-01-19T06:20:34.048Z,2.79
2023-01-19T06:23:02.446Z,2.36
2023-01-19T06:25:30.833Z,2.47
2023-01-19T06:27:59.022Z,2.48
2023-01-19T06:30:27.182Z,2.49
2023-01-19T06:32:56.792Z,2.19
2023-01-19T06:35:24.970Z,2.27
2023-01-19T06:37:53.711Z,2.46
2023-01-19T06:40:21.826Z,1.87
2023-01-19T06:42:50.302Z,2.03
2023-01-19T06:45:18.516Z,2.21
2023-01-19T06:47:48.595Z,2.35
2023-01-19T06:50:18.364Z,3.02
2023-01-19T06:52:46.570Z,2.76
2023-01-19T06:55:14.698Z,2.71
2023-01-19T06:57:44.536Z,2.45
2023-01-19T07:00:13.732Z,1.60
2023-01-19T07:02:43.653Z,2.49
2023-01-19T07:06:25.839Z,2.71
2023-01-19T07:08:55.563Z,2.32
2023-01-19T07:11:31.020Z,2.01
2023-01-19T07:14:01.579Z,2.14
2023-01-19T07:16:30.185Z,2.34
2023-01-19T07:18:58.641Z,1.66
2023-01-19T07:21:29.355Z,1.65
2023-01-19T07:23:58.495Z,2.00
2023-01-19T07:26:28.095Z,2.21
2023-01-19T07:28:57.717Z,2.29
2023-01-19T07:31:26.445Z,2.25
2023-01-19T07:33:55.097Z,2.58
2023-01-19T07:36:23.501Z,2.24
2023-01-19T07:38:53.368Z,2.32
2023-01-19T07:41:21.826Z,2.68
2023-01-19T07:43:53.375Z,2.25
2023-01-19T07:46:24.225Z,2.45
2023-01-19T07:48:52.641Z,2.25
2023-01-19T07:51:21.063Z,2.31
2023-01-19T07:53:52.590Z,2.58
2023-01-19T07:56:22.110Z,2.56
2023-01-19T07:58:52.602Z,2.62
2023-01-19T08:01:21.261Z,2.74
2023-01-19T08:03:50.282Z,2.59
2023-01-19T08:06:22.151Z,2.67
2023-01-19T08:08:52.481Z,2.95
2023-01-19T08:11:23.799Z,2.27
2023-01-19T08:13:52.284Z,2.25
2023-01-19T08:16:20.711Z,2.41
2023-01-19T08:18:49.140Z,2.35
2023-01-19T08:21:17.751Z,2.43
2023-01-19T08:23:46.033Z,2.41
2023-01-19T08:26:24.271Z,2.50
2023-01-19T08:28:52.725Z,2.95
2023-01-19T08:31:24.503Z,2.19
2023-01-19T08:33:53.459Z,2.40
2023-01-19T08:36:22.718Z,2.73
2023-01-19T08:38:51.187Z,2.57
2023-01-19T08:41:19.691Z,2.91
2023-01-19T08:43:49.657Z,2.67
2023-01-19T08:46:21.000Z,2.78
2023-01-19T08:48:50.410Z,2.70
2023-01-19T08:51:19.368Z,3.18
2023-01-19T08:53:47.814Z,2.88
2023-01-19T08:56:16.388Z,2.74
2023-01-19T08:58:53.617Z,3.01
2023-01-19T09:01:33.322Z,2.93
2023-01-19T09:04:01.983Z,2.60
2023-01-19T09:06:30.486Z,2.96
2023-01-19T09:08:58.940Z,2.66
2023-01-19T09:11:27.665Z,3.26
2023-01-19T09:13:55.753Z,3.05
2023-01-19T09:16:25.027Z,3.61
2023-01-19T09:18:57.191Z,3.10
2023-01-19T09:21:25.642Z,2.97
2023-01-19T09:23:54.875Z,3.28
2023-01-19T09:26:23.869Z,3.12
2023-01-19T09:28:52.270Z,3.10
2023-01-19T09:31:20.862Z,3.39
2023-01-19T09:33:49.293Z,3.67
2023-01-19T09:36:19.183Z,3.35
2023-01-19T09:38:47.787Z,3.49
2023-01-19T09:41:22.441Z,3.29
2023-01-19T09:43:56.025Z,3.33
2023-01-19T09:46:31.298Z,3.04
2023-01-19T09:49:08.062Z,3.24
2023-01-19T09:51:41.226Z,3.34
2023-01-19T09:54:14.641Z,2.94
2023-01-19T09:56:43.804Z,2.91
2023-01-19T09:59:21.006Z,3.09
2023-01-19T10:02:20.668Z,2.99
2023-01-19T10:05:00.414Z,2.95
2023-01-19T10:07:53.328Z,3.15
2023-01-19T10:10:23.769Z,2.62
2023-01-19T10:13:22.855Z,3.30
2023-01-19T10:16:00.651Z,2.38
2023-01-19T10:18:39.003Z,3.04
2023-01-19T10:21:13.111Z,3.43
2023-01-19T10:23:52.320Z,3.26
2023-01-19T10:26:25.904Z,2.80
2023-01-19T10:28:59.981Z,3.08
2023-01-19T10:31:29.008Z,3.40
2023-01-19T10:33:57.507Z,3.25
2023-01-19T10:36:31.054Z,2.87
2023-01-19T10:39:04.429Z,2.65
2023-01-19T10:41:45.432Z,2.82
2023-01-19T10:44:23.847Z,2.82
2023-01-19T10:46:54.536Z,2.97
2023-01-19T10:49:27.787Z,2.92
2023-01-19T10:51:57.995Z,2.67
2023-01-19T10:54:32.813Z,2.94
2023-01-19T10:57:04.851Z,2.91
2023-01-19T10:59:36.295Z,2.72
2023-01-19T11:02:20.327Z,3.24
2023-01-19T11:04:51.372Z,3.26
2023-01-19T11:07:22.211Z,3.14
2023-01-19T11:10:22.168Z,2.88
2023-01-19T11:13:01.519Z,3.02
2023-01-19T11:15:34.999Z,3.20
2023-01-19T11:18:05.999Z,3.19
2023-01-19T11:20:44.245Z,3.51
2023-01-19T11:23:25.009Z,3.30
2023-01-19T11:25:57.851Z,2.58
2023-01-19T11:28:29.963Z,2.71
2023-01-19T11:31:00.706Z,3.04
2023-01-19T11:33:36.110Z,3.18
2023-01-19T11:36:07.627Z,2.84
2023-01-19T11:38:46.036Z,2.93
2023-01-19T11:41:20.859Z,2.63
2023-01-19T11:43:52.850Z,2.15
2023-01-19T11:46:23.919Z,3.02
2023-01-19T11:49:01.992Z,3.01
2023-01-19T11:51:37.503Z,3.24
2023-01-19T11:54:17.002Z,3.22
2023-01-19T11:56:52.178Z,3.06
2023-01-19T11:59:22.365Z,2.98
2023-01-19T12:01:55.801Z,3.11
2023-01-19T12:04:29.159Z,2.94
2023-01-19T12:07:00.462Z,3.01
2023-01-19T12:09:31.668Z,2.39
2023-01-19T12:12:05.734Z,2.66
2023-01-19T12:14:39.684Z,3.13
2023-01-19T12:17:17.556Z,2.95
2023-01-19T12:19:54.968Z,3.17
2023-01-19T12:22:28.629Z,3.21
2023-01-19T12:25:03.232Z,3.13
2023-01-19T12:27:41.278Z,2.53
2023-01-19T12:30:18.589Z,2.55
2023-01-19T12:32:47.145Z,3.08
2023-01-19T12:35:53.039Z,3.32
2023-01-19T12:38:53.679Z,3.38
2023-01-19T12:41:27.820Z,3.23
2023-01-19T12:44:25.377Z,2.91
2023-01-19T12:46:57.508Z,2.37
2023-01-19T12:49:35.935Z,2.98
2023-01-19T12:52:28.195Z,2.67
2023-01-19T12:55:01.755Z,2.89
2023-01-19T12:57:36.450Z,2.81
2023-01-19T13:00:09.342Z,2.94
2023-01-19T13:02:47.810Z,2.94
2023-01-19T13:05:19.781Z,2.84
2023-01-19T13:08:16.955Z,3.15
2023-01-19T13:11:23.825Z,2.95
2023-01-19T13:14:39.501Z,2.79
2023-01-19T13:17:23.552Z,2.62
2023-01-19T13:19:59.646Z,2.18
2023-01-19T13:22:53.863Z,2.58
2023-01-19T13:25:33.732Z,2.44
2023-01-19T13:28:03.854Z,3.13
2023-01-19T13:30:36.695Z,2.95
2023-01-19T13:33:15.590Z,2.92
2023-01-19T13:35:52.839Z,2.66
2023-01-19T13:38:22.707Z,3.20
2023-01-19T13:40:52.223Z,2.82
2023-01-19T13:43:26.044Z,2.62
2023-01-19T13:45:57.327Z,2.45
2023-01-19T13:48:27.609Z,2.79
2023-01-19T13:51:01.025Z,2.86
2023-01-19T13:53:30.628Z,2.84
2023-01-19T13:56:08.483Z,3.04
2023-01-19T13:58:37.212Z,3.41
2023-01-19T14:01:05.691Z,3.31
2023-01-19T14:03:35.758Z,3.09
2023-01-19T14:06:04.523Z,3.17
2023-01-19T14:08:33.947Z,3.19
2023-01-19T14:11:03.596Z,2.94
2023-01-19T14:13:33.317Z,3.02
2023-01-19T14:16:07.016Z,2.85
2023-01-19T14:18:37.950Z,3.07
2023-01-19T14:21:09.039Z,2.95
2023-01-19T14:23:49.477Z,3.03
2023-01-19T14:26:40.300Z,2.88
2023-01-19T14:29:16.913Z,2.82
2023-01-19T14:31:46.636Z,2.62
2023-01-19T14:34:33.110Z,3.03
2023-01-19T14:37:25.433Z,2.67
2023-01-19T14:40:00.482Z,2.73
2023-01-19T14:42:32.532Z,2.60
2023-01-19T14:45:02.915Z,2.80
2023-01-19T14:47:37.077Z,2.49
2023-01-19T14:50:20.287Z,2.35
2023-01-19T14:52:55.960Z,2.43
2023-01-19T14:55:30.990Z,2.68
2023-01-19T14:57:59.661Z,2.25
2023-01-19T15:00:28.534Z,2.42
2023-01-19T15:02:57.161Z,2.23
2023-01-19T15:05:27.060Z,2.43
2023-01-19T15:07:55.654Z,2.64
2023-01-19T15:10:25.889Z,2.92
2023-01-19T15:12:56.151Z,2.84
2023-01-19T15:15:29.615Z,3.13
2023-01-19T15:17:58.960Z,2.76
2023-01-19T15:20:29.458Z,2.58
2023-01-19T15:22:57.958Z,2.80
2023-01-19T15:25:27.080Z,3.14
2023-01-19T15:27:59.969Z,2.61
2023-01-19T15:30:31.179Z,2.44
2023-01-19T15:33:00.190Z,2.85
2023-01-19T15:35:29.995Z,3.05
2023-01-19T15:37:58.668Z,2.81
2023-01-19T15:40:30.202Z,2.79
2023-01-19T15:42:58.772Z,3.06
2023-01-19T15:45:36.433Z,2.54
2023-01-19T15:48:06.838Z,2.32
2023-01-19T15:50:39.012Z,2.68
2023-01-19T15:53:08.076Z,2.57
2023-01-19T15:55:36.837Z,2.79
2023-01-19T15:58:05.060Z,3.05
2023-01-19T16:00:34.954Z,3.25
2023-01-19T16:03:04.680Z,2.78
2023-01-19T16:05:42.464Z,2.46
2023-01-19T16:08:13.020Z,3.19
2023-01-19T16:10:41.909Z,2.96
2023-01-19T16:13:11.056Z,2.70
2023-01-19T16:15:42.415Z,2.62
2023-01-19T16:18:11.099Z,2.97
2023-01-19T16:20:39.307Z,3.15
2023-01-19T16:23:15.625Z,3.08
2023-01-19T16:25:45.962Z,2.77
2023-01-19T16:28:14.627Z,2.52
2023-01-19T16:30:43.070Z,2.53
2023-01-19T16:33:13.968Z,2.83
2023-01-19T16:35:42.711Z,2.62
2023-01-19T16:38:10.971Z,2.82
2023-01-19T16:40:40.081Z,2.95
2023-01-19T16:43:10.072Z,3.14
2023-01-19T16:45:56.625Z,3.39
2023-01-19T16:48:25.499Z,3.07
2023-01-19T16:50:59.609Z,3.02
2023-01-19T16:53:28.289Z,2.98
2023-01-19T16:55:57.026Z,2.92
2023-01-19T16:58:27.606Z,2.53
2023-01-19T17:00:56.353Z,2.80
2023-01-19T17:03:24.664Z,3.03
2023-01-19T17:05:53.724Z,2.90
2023-01-19T17:08:22.500Z,3.13
2023-01-19T17:10:50.972Z,3.28
2023-01-19T17:13:19.799Z,3.18
2023-01-19T17:15:50.452Z,2.60
2023-01-19T17:18:19.227Z,3.02
2023-01-19T17:20:50.485Z,2.74
2023-01-19T17:23:19.176Z,3.02
2023-01-19T17:25:53.099Z,2.96
2023-01-19T17:28:22.122Z,2.51
2023-01-19T17:30:52.997Z,2.99
2023-01-19T17:33:23.009Z,3.18
2023-01-19T17:35:52.193Z,2.99
2023-01-19T17:38:20.893Z,2.94
2023-01-19T17:40:49.184Z,2.93
2023-01-19T17:43:17.906Z,2.70
2023-01-19T17:45:46.665Z,2.70
2023-01-19T17:48:17.734Z,3.08
2023-01-19T17:50:46.558Z,2.88
2023-01-19T17:53:14.792Z,2.95
2023-01-19T17:55:44.034Z,2.93
2023-01-19T17:58:13.257Z,2.84
2023-01-19T18:00:42.193Z,2.39
2023-01-19T18:03:11.193Z,2.20
2023-01-19T18:05:41.481Z,2.33
2023-01-19T18:08:11.968Z,2.69
2023-01-19T18:10:44.516Z,2.82
2023-01-19T18:13:16.576Z,2.59
2023-01-19T18:15:45.321Z,2.55
2023-01-19T18:18:13.941Z,3.13
2023-01-19T18:20:44.819Z,2.74
2023-01-19T18:23:14.506Z,2.72
2023-01-19T18:25:43.449Z,2.44
2023-01-19T18:28:12.259Z,2.79
2023-01-19T18:30:41.497Z,2.83
2023-01-19T18:33:10.227Z,2.38
2023-01-19T18:35:40.533Z,2.75
2023-01-19T18:38:11.679Z,2.82
2023-01-19T18:40:40.875Z,2.25
2023-01-19T18:43:09.655Z,2.82
2023-01-19T18:45:39.913Z,2.64
2023-01-19T18:48:09.107Z,2.83
2023-01-19T18:50:39.782Z,2.70
2023-01-19T18:53:09.107Z,2.81
2023-01-19T18:55:39.449Z,3.23
2023-01-19T18:58:09.057Z,2.93
2023-01-19T19:00:38.316Z,2.45
2023-01-19T19:03:15.052Z,3.04
2023-01-19T19:05:44.047Z,2.97
2023-01-19T19:08:12.892Z,2.97
2023-01-19T19:10:43.364Z,3.13
2023-01-19T19:13:14.399Z,3.17
2023-01-19T19:15:44.676Z,3.12
2023-01-19T19:18:14.239Z,2.71
2023-01-19T19:20:43.586Z,2.58
2023-01-19T19:23:12.929Z,2.62
2023-01-19T19:25:43.153Z,2.59
2023-01-19T19:28:12.115Z,2.89
2023-01-19T19:30:41.704Z,3.04
2023-01-19T19:33:10.459Z,2.90
2023-01-19T19:35:38.952Z,3.02
2023-01-19T19:38:07.611Z,2.69
2023-01-19T19:40:36.397Z,2.68
2023-01-19T19:43:06.605Z,2.96
2023-01-19T19:45:36.111Z,2.80
2023-01-19T19:48:05.187Z,2.73
2023-01-19T19:50:36.408Z,2.61
2023-01-19T19:53:05.825Z,2.88
2023-01-19T19:55:34.863Z,2.93
2023-01-19T19:58:03.785Z,2.94
2023-01-19T20:00:34.484Z,2.79
2023-01-19T20:03:03.783Z,2.95
2023-01-19T20:05:32.980Z,3.17
2023-01-19T20:08:02.579Z,3.19
2023-01-19T20:10:32.327Z,3.16
2023-01-19T20:13:01.410Z,3.56
2023-01-19T20:15:29.943Z,2.88
2023-01-19T20:18:00.239Z,2.77
2023-01-19T20:20:31.615Z,2.99
2023-01-19T20:23:00.931Z,3.16
2023-01-19T20:25:30.133Z,2.99
2023-01-19T20:27:59.500Z,3.39
2023-01-19T20:30:28.536Z,3.07
2023-01-19T20:32:57.283Z,3.08
2023-01-19T20:35:27.618Z,3.54
2023-01-19T20:37:56.625Z,3.44
2023-01-19T20:40:25.573Z,3.16
2023-01-19T20:42:54.532Z,3.39
2023-01-19T20:45:23.482Z,3.42
2023-01-19T20:47:52.681Z,3.48
2023-01-19T20:50:21.704Z,3.35
2023-01-19T20:52:51.832Z,3.45
2023-01-19T20:55:20.443Z,3.35
2023-01-19T20:57:49.365Z,3.63
2023-01-19T21:00:18.392Z,3.37
2023-01-19T21:02:47.612Z,3.31
2023-01-19T21:05:16.608Z,3.41
2023-01-19T21:07:45.567Z,3.26
2023-01-19T21:10:16.246Z,3.13
2023-01-19T21:12:48.669Z,2.92
2023-01-19T21:15:19.270Z,3.28
2023-01-19T21:17:49.739Z,3.47
2023-01-19T21:20:19.942Z,3.13
2023-01-19T21:22:53.115Z,3.10
2023-01-19T21:25:23.795Z,3.30
2023-01-19T21:27:55.032Z,3.21
2023-01-19T21:30:24.661Z,3.21
2023-01-19T21:32:53.546Z,3.47
2023-01-19T21:35:22.722Z,3.04
2023-01-19T21:37:51.812Z,3.13
2023-01-19T21:40:25.442Z,2.77
2023-01-19T21:42:54.512Z,3.15
2023-01-19T21:45:23.878Z,3.38
2023-01-19T21:47:52.668Z,3.29
2023-01-19T21:50:23.748Z,3.02
2023-01-19T21:52:53.146Z,3.12
2023-01-19T21:55:23.407Z,3.24
2023-01-19T21:57:53.605Z,2.80
2023-01-19T22:00:23.292Z,3.10
2023-01-19T22:03:03.421Z,3.31
2023-01-19T22:05:36.922Z,3.57
2023-01-19T22:08:11.149Z,3.42
2023-01-19T22:10:41.826Z,3.45
2023-01-19T22:13:10.674Z,3.58
2023-01-19T22:15:39.146Z,3.39
2023-01-19T22:18:08.018Z,3.49
2023-01-19T22:20:37.106Z,3.34
2023-01-19T22:23:06.189Z,3.47
2023-01-19T22:25:36.073Z,3.31
2023-01-19T22:28:06.897Z,3.48
2023-01-19T22:30:39.295Z,3.40
2023-01-19T22:33:08.489Z,3.15
2023-01-19T22:35:37.708Z,3.13
2023-01-19T22:38:06.670Z,3.26
2023-01-19T22:40:36.822Z,3.40
2023-01-19T22:43:07.535Z,3.28
2023-01-19T22:45:43.441Z,3.45
2023-01-19T22:48:15.683Z,3.35
2023-01-19T22:50:45.403Z,3.71
2023-01-19T22:53:14.463Z,3.01
2023-01-19T22:55:43.437Z,3.06
2023-01-19T22:58:14.422Z,3.55
2023-01-19T23:00:43.743Z,3.60
2023-01-19T23:03:13.013Z,3.79
2023-01-19T23:05:42.149Z,3.85
2023-01-19T23:08:11.275Z,3.80
2023-01-19T23:10:40.744Z,3.06
2023-01-19T23:13:09.653Z,3.39
2023-01-19T23:15:40.347Z,3.20
2023-01-19T23:18:09.377Z,3.42
2023-01-19T23:20:38.397Z,3.27
2023-01-19T23:23:07.767Z,3.15
2023-01-19T23:25:36.502Z,3.40
2023-01-19T23:28:05.227Z,3.60
2023-01-19T23:30:34.380Z,3.31
2023-01-19T23:33:04.918Z,3.23
2023-01-19T23:35:36.217Z,3.39
2023-01-19T23:38:05.062Z,3.23
2023-01-19T23:40:34.100Z,3.13
2023-01-19T23:43:02.881Z,3.23
2023-01-19T23:45:31.623Z,3.37
2023-01-19T23:48:00.607Z,3.42
2023-01-19T23:50:31.105Z,3.63
2023-01-19T23:53:00.336Z,3.70
2023-01-19T23:55:29.341Z,4.13
2023-01-19T23:57:58.135Z,3.51
